Time;durP1;ratioP1;P1;durP2;ratioP2;P2;SDS_P1;SDS_P2;PMS_P1;PMS_P2;Temp;Humidity;BMP_temperature;BMP_pressure;BME280_temperature;BME280_humidity;BME280_pressure;Samples;Min_cycle;Max_cycle;Signal;HPM_P1;HPM_P2
2021/05/13 00:00:46;;;;;;;;;;;;;;;20.48;40.88;100460.81;2208350;39;114130;-53
2021/05/13 00:02:18;;;;;;;;;;;;;;;20.49;41.03;100459.69;2213538;39;113709;-53
2021/05/13 00:03:52;;;;;;;;;;;;;;;20.48;41.31;100458.84;2208443;39;113679;-53
2021/05/13 00:05:24;;;;;;;;;;;;;;;20.48;41.28;100466.44;2205912;39;113734;-53
2021/05/13 00:06:56;;;;;;;;;;;;;;;20.47;41.26;100460.00;2207738;39;113780;-53
2021/05/13 00:08:28;;;;;;;;;;;;;;;20.44;41.05;100463.44;2210566;39;113680;-53
2021/05/13 00:10:01;;;;;;;;;;;;;;;20.46;41.14;100457.50;2215350;39;114081;-55
2021/05/13 00:11:34;;;;;;;;;;;;;;;20.46;41.24;100457.50;2209591;39;114021;-53
2021/05/13 00:13:06;;;;;;;;;;;;;;;20.43;41.48;100458.97;2209047;39;115385;-54
2021/05/13 00:14:38;;;;;;;;;;;;;;;20.44;41.53;100462.63;2204105;39;115711;-54
2021/05/13 00:16:10;;;;;;;;;;;;;;;20.43;41.23;100464.59;2212349;39;114978;-53
2021/05/13 00:17:42;;;;;;;;;;;;;;;20.42;41.50;100452.53;2217385;39;114006;-53
2021/05/13 00:19:14;;;;;;;;;;;;;;;20.43;41.34;100453.38;2208399;39;115052;-53
2021/05/13 00:20:46;;;;;;;;;;;;;;;20.39;41.27;100447.56;2213116;39;113962;-53
2021/05/13 00:22:18;;;;;;;;;;;;;;;20.41;41.43;100452.84;2206178;39;114754;-54
2021/05/13 00:23:50;;;;;;;;;;;;;;;20.42;41.41;100448.91;2212616;39;115459;-53
2021/05/13 00:25:22;;;;;;;;;;;;;;;20.39;41.28;100452.34;2208893;39;113821;-53
2021/05/13 00:26:58;;;;;;;;;;;;;;;20.40;41.05;100445.56;2204616;39;114638;-54
2021/05/13 00:28:30;;;;;;;;;;;;;;;20.40;40.60;100439.94;2213841;39;114917;-56
2021/05/13 00:30:06;;;;;;;;;;;;;;;20.38;41.05;100450.69;2215656;39;114343;-53
2021/05/13 00:31:38;;;;;;;;;;;;;;;20.39;40.98;100441.13;2209740;39;114750;-54
2021/05/13 00:33:10;;;;;;;;;;;;;;;20.39;40.90;100441.13;2215065;39;116673;-54
2021/05/13 00:34:42;;;;;;;;;;;;;;;20.37;40.71;100444.25;2203192;39;114616;-54
2021/05/13 00:36:13;;;;;;;;;;;;;;;20.37;40.61;100443.41;2212288;39;116249;-54
2021/05/13 00:37:45;;;;;;;;;;;;;;;20.38;40.93;100439.47;2214327;39;115109;-54
2021/05/13 00:39:17;;;;;;;;;;;;;;;20.36;40.56;100441.75;2205904;39;115535;-53
2021/05/13 00:40:49;;;;;;;;;;;;;;;20.36;40.90;100436.13;2207664;39;115712;-53
2021/05/13 00:42:21;;;;;;;;;;;;;;;20.35;40.78;100434.50;2214599;39;114668;-54
2021/05/13 00:43:53;;;;;;;;;;;;;;;20.35;40.50;100434.50;2216844;39;115483;-53
2021/05/13 00:45:25;;;;;;;;;;;;;;;20.33;40.48;100434.81;2209273;39;114601;-54
2021/05/13 00:46:56;;;;;;;;;;;;;;;20.33;40.54;100436.78;2213908;39;115562;-54
2021/05/13 00:48:34;;;;;;;;;;;;;;;20.31;40.46;100434.28;2214837;39;115721;-53
2021/05/13 00:50:06;;;;;;;;;;;;;;;20.31;40.43;100437.09;2216564;39;115404;-54
2021/05/13 00:51:38;;;;;;;;;;;;;;;20.32;40.57;100429.50;2217085;39;115430;-53
2021/05/13 00:53:10;;;;;;;;;;;;;;;20.30;40.83;100424.25;2210184;39;116230;-53
2021/05/13 00:54:42;;;;;;;;;;;;;;;20.30;40.43;100429.00;2207084;39;115604;-55
2021/05/13 00:56:14;;;;;;;;;;;;;;;20.29;40.80;100430.97;2201709;39;114640;-53
2021/05/13 00:57:49;;;;;;;;;;;;;;;20.29;40.88;100424.50;2214379;39;114024;-52
2021/05/13 00:59:24;;;;;;;;;;;;;;;20.27;40.58;100422.03;2208773;39;113989;-54
2021/05/13 01:02:28;;;;;;;;;;;;;;;20.27;40.58;100415.56;2215036;39;113695;-54
2021/05/13 01:04:00;;;;;;;;;;;;;;;20.26;40.58;100411.94;2215681;39;114074;-54
2021/05/13 01:05:33;;;;;;;;;;;;;;;20.26;40.85;100411.13;2214023;39;114055;-52
2021/05/13 01:07:05;;;;;;;;;;;;;;;20.27;40.83;100415.56;2210249;39;113749;-54
2021/05/13 01:08:37;;;;;;;;;;;;;;;20.26;40.53;100406.31;2207103;39;114218;-54
2021/05/13 01:10:09;;;;;;;;;;;;;;;20.25;40.64;100415.09;2201660;39;114291;-55
2021/05/13 01:11:43;;;;;;;;;;;;;;;20.26;40.54;100425.97;2202763;39;114109;-54
2021/05/13 01:13:19;;;;;;;;;;;;;;;20.24;40.64;100411.44;2208185;39;113723;-53
2021/05/13 01:14:53;;;;;;;;;;;;;;;20.25;40.90;100418.72;2202817;39;113882;-54
2021/05/13 01:16:32;;;;;;;;;;;;;;;20.23;40.94;100409.78;2214833;39;114359;-53
2021/05/13 01:19:37;;;;;;;;;;;;;;;20.22;40.78;100407.28;2208242;39;114274;-53
2021/05/13 01:21:13;;;;;;;;;;;;;;;20.23;40.69;100408.94;2204486;39;114704;-54
2021/05/13 01:22:46;;;;;;;;;;;;;;;20.22;40.81;100407.28;2208291;39;114874;-54
2021/05/13 01:24:18;;;;;;;;;;;;;;;20.23;40.70;100406.16;2203998;39;114805;-54
2021/05/13 01:25:52;;;;;;;;;;;;;;;20.21;40.81;100400.88;2202300;39;114448;-54
2021/05/13 01:27:24;;;;;;;;;;;;;;;20.21;40.95;100405.66;2213146;39;114852;-53
2021/05/13 01:28:56;;;;;;;;;;;;;;;20.21;40.85;100391.63;2211113;39;114771;-54
2021/05/13 01:30:28;;;;;;;;;;;;;;;20.20;40.63;100402.00;2211493;39;113969;-53
2021/05/13 01:32:00;;;;;;;;;;;;;;;20.21;40.77;100398.06;2209059;39;115223;-53
2021/05/13 01:33:32;;;;;;;;;;;;;;;20.19;40.66;100397.53;2205562;39;114950;-53
2021/05/13 01:35:04;;;;;;;;;;;;;;;20.20;40.58;100392.78;2212842;39;114158;-53
2021/05/13 01:36:36;;;;;;;;;;;;;;;20.18;40.97;100384.66;2217367;39;114596;-54
2021/05/13 01:38:09;;;;;;;;;;;;;;;20.20;40.79;100387.16;2209499;39;114805;-54
2021/05/13 01:39:40;;;;;;;;;;;;;;;20.17;40.95;100383.00;2213664;39;114640;-54
2021/05/13 01:41:12;;;;;;;;;;;;;;;20.18;40.65;100390.28;2215877;39;115575;-54
2021/05/13 01:42:44;;;;;;;;;;;;;;;20.19;40.90;100385.50;2217603;39;115957;-54
2021/05/13 01:44:15;;;;;;;;;;;;;;;20.18;40.89;100386.63;2208676;39;115465;-54
2021/05/13 01:45:47;;;;;;;;;;;;;;;20.16;40.80;100380.53;2206019;39;116001;-54
2021/05/13 01:47:19;;;;;;;;;;;;;;;20.16;40.83;100386.16;2207078;39;115510;-54
2021/05/13 01:48:51;;;;;;;;;;;;;;;20.17;40.66;100377.38;2210310;39;115628;-54
2021/05/13 01:50:23;;;;;;;;;;;;;;;20.16;41.00;100381.38;2210599;39;114158;-54
2021/05/13 01:51:54;;;;;;;;;;;;;;;20.18;40.73;100378.22;2214453;39;115737;-53
2021/05/13 01:53:26;;;;;;;;;;;;;;;20.16;41.04;100372.94;2209640;39;115756;-53
2021/05/13 01:54:58;;;;;;;;;;;;;;;20.16;41.19;100366.50;2211050;39;115803;-56
2021/05/13 01:56:29;;;;;;;;;;;;;;;20.15;40.93;100364.84;2216567;39;114569;-54
2021/05/13 01:58:01;;;;;;;;;;;;;;;20.16;40.95;100363.72;2216360;39;115259;-54
2021/05/13 01:59:33;;;;;;;;;;;;;;;20.15;40.80;100373.25;2205851;39;115497;-53
2021/05/13 02:01:05;;;;;;;;;;;;;;;20.14;40.85;100369.63;2210225;39;115864;-54
2021/05/13 02:02:37;;;;;;;;;;;;;;;20.13;40.63;100362.34;2206672;39;114118;-54
2021/05/13 02:04:09;;;;;;;;;;;;;;;20.13;41.16;100367.97;2210618;39;115074;-54
2021/05/13 02:05:41;;;;;;;;;;;;;;;20.13;40.83;100367.13;2208442;39;114112;-54
2021/05/13 02:07:13;;;;;;;;;;;;;;;20.13;40.96;100367.13;2204999;39;114001;-53
2021/05/13 02:08:45;;;;;;;;;;;;;;;20.13;41.14;100361.53;2211736;39;114067;-54
2021/05/13 02:10:17;;;;;;;;;;;;;;;20.15;41.25;100364.84;2216160;39;114228;-54
2021/05/13 02:11:49;;;;;;;;;;;;;;;20.14;41.22;100361.22;2216310;39;114013;-54
2021/05/13 02:13:20;;;;;;;;;;;;;;;20.15;41.30;100370.47;2214911;39;113769;-54
2021/05/13 02:14:52;;;;;;;;;;;;;;;20.15;41.22;100362.88;2214550;39;113959;-54
2021/05/13 02:16:24;;;;;;;;;;;;;;;20.15;41.08;100362.03;2216912;39;113944;-53
2021/05/13 02:17:55;;;;;;;;;;;;;;;20.14;41.28;100366.00;2213105;39;114097;-54
2021/05/13 02:19:27;;;;;;;;;;;;;;;20.14;41.46;100363.19;2207372;39;114051;-54
2021/05/13 02:20:59;;;;;;;;;;;;;;;20.15;41.15;100357.25;2206569;39;115424;-54
2021/05/13 02:22:31;;;;;;;;;;;;;;;20.14;41.49;100355.59;2201530;39;113834;-61
2021/05/13 02:24:03;;;;;;;;;;;;;;;20.15;41.34;100357.25;2210290;39;113873;-53
2021/05/13 02:25:36;;;;;;;;;;;;;;;20.16;41.43;100347.72;2215638;39;113803;-54
2021/05/13 02:27:08;;;;;;;;;;;;;;;20.13;41.57;100350.31;2217379;39;114074;-53
2021/05/13 02:28:40;;;;;;;;;;;;;;;20.13;41.59;100351.13;2214824;39;115593;-54
2021/05/13 02:30:12;;;;;;;;;;;;;;;20.14;41.29;100349.16;2209439;39;114767;-53
2021/05/13 02:31:44;;;;;;;;;;;;;;;20.12;41.47;100355.13;2214324;39;114204;-53
2021/05/13 02:33:16;;;;;;;;;;;;;;;20.11;41.66;100350.66;2217165;39;115303;-54
2021/05/13 02:34:48;;;;;;;;;;;;;;;20.15;41.40;100350.81;2209185;39;115823;-54
2021/05/13 02:36:19;;;;;;;;;;;;;;;20.13;41.89;100347.50;2215534;39;114858;-53
2021/05/13 02:37:51;;;;;;;;;;;;;;;20.13;41.56;100339.91;2209753;39;115280;-53
2021/05/13 02:39:23;;;;;;;;;;;;;;;20.14;41.61;100344.38;2208461;39;114839;-54
2021/05/13 02:40:54;;;;;;;;;;;;;;;20.15;41.72;100345.22;2210806;39;114795;-53
2021/05/13 02:42:26;;;;;;;;;;;;;;;20.12;41.59;100348.66;2210676;39;115202;-53
2021/05/13 02:43:58;;;;;;;;;;;;;;;20.12;41.82;100346.69;2217644;39;113931;-54
2021/05/13 02:45:30;;;;;;;;;;;;;;;20.13;41.69;100341.88;2209918;39;115665;-54
2021/05/13 02:47:01;;;;;;;;;;;;;;;20.11;41.96;100335.78;2204289;39;115777;-54
2021/05/13 02:48:33;;;;;;;;;;;;;;;20.12;41.67;100335.47;2206768;39;116186;-54
2021/05/13 02:50:06;;;;;;;;;;;;;;;20.12;41.95;100343.06;2208562;39;115417;-53
2021/05/13 02:51:37;;;;;;;;;;;;;;;20.11;42.29;100332.97;2205632;39;114425;-52
2021/05/13 02:53:09;;;;;;;;;;;;;;;20.11;42.28;100338.59;2209704;39;116479;-56
2021/05/13 02:54:41;;;;;;;;;;;;;;;20.07;41.71;100332.81;2212865;39;115626;-54
2021/05/13 02:56:12;;;;;;;;;;;;;;;20.08;41.99;100342.06;2213516;39;115055;-53
2021/05/13 02:57:46;;;;;;;;;;;;;;;20.07;41.98;100334.78;2217204;39;115974;-53
2021/05/13 02:59:18;;;;;;;;;;;;;;;20.05;42.25;100329.47;2213043;39;115796;-53
2021/05/13 03:02:25;;;;;;;;;;;;;;;20.03;41.98;100330.97;2213791;39;115480;-54
2021/05/13 03:03:58;;;;;;;;;;;;;;;20.03;42.26;100337.41;2214012;39;117250;-54
2021/05/13 03:05:30;;;;;;;;;;;;;;;20.01;42.27;100339.69;2203906;39;115010;-54
2021/05/13 03:07:02;;;;;;;;;;;;;;;20.03;41.98;100337.41;2208612;39;115535;-54
2021/05/13 03:08:35;;;;;;;;;;;;;;;20.02;42.39;100335.75;2208306;39;114002;-54
2021/05/13 03:10:15;;;;;;;;;;;;;;;20.01;42.12;100333.25;2215493;39;113972;-53
2021/05/13 03:11:46;;;;;;;;;;;;;;;20.00;42.26;100332.41;2217539;39;113862;-54
2021/05/13 03:13:22;;;;;;;;;;;;;;;20.01;42.62;100331.28;2218234;39;114140;-54
2021/05/13 03:14:56;;;;;;;;;;;;;;;20.01;42.49;100336.88;2217580;39;114055;-53
2021/05/13 03:16:29;;;;;;;;;;;;;;;20.01;42.26;100338.84;2209200;39;113908;-53
2021/05/13 03:18:01;;;;;;;;;;;;;;;19.99;42.39;100336.34;2211166;39;113635;-53
2021/05/13 03:19:42;;;;;;;;;;;;;;;19.99;42.59;100344.78;2210323;39;114048;-53
2021/05/13 03:21:21;;;;;;;;;;;;;;;19.99;42.50;100339.16;2210430;39;113686;-53
2021/05/13 03:22:59;;;;;;;;;;;;;;;19.97;42.77;100333.88;2204683;39;114271;-53
2021/05/13 03:24:42;;;;;;;;;;;;;;;19.98;42.36;100340.34;2204803;39;113787;-55
2021/05/13 03:26:13;;;;;;;;;;;;;;;19.99;42.75;100333.56;2215021;39;114095;-53
2021/05/13 03:27:49;;;;;;;;;;;;;;;19.97;42.57;100331.09;2209425;39;114218;-53
2021/05/13 03:29:21;;;;;;;;;;;;;;;19.97;42.47;100339.50;2211441;39;113799;-55
2021/05/13 03:30:53;;;;;;;;;;;;;;;19.96;42.58;100340.63;2208298;39;114762;-53
2021/05/13 03:32:24;;;;;;;;;;;;;;;19.97;42.51;100339.50;2207349;39;114006;-54
2021/05/13 03:33:56;;;;;;;;;;;;;;;19.97;43.06;100335.88;2210513;39;114934;-54
2021/05/13 03:35:28;;;;;;;;;;;;;;;19.95;43.04;100341.78;2211851;39;114755;-53
2021/05/13 03:36:59;;;;;;;;;;;;;;;19.93;43.44;100330.06;2209428;39;115051;-53
2021/05/13 03:38:31;;;;;;;;;;;;;;;19.93;43.42;100338.50;2208714;39;115498;-53
2021/05/13 03:40:05;;;;;;;;;;;;;;;19.93;43.69;100332.06;2209172;39;115275;-53
2021/05/13 03:41:37;;;;;;;;;;;;;;;19.93;43.92;100326.44;2205802;39;115026;-54
2021/05/13 03:43:09;;;;;;;;;;;;;;;19.93;44.01;100332.06;2202239;39;114293;-53
2021/05/13 03:44:44;;;;;;;;;;;;;;;19.93;44.33;100329.25;2208964;39;114887;-53
2021/05/13 03:46:15;;;;;;;;;;;;;;;19.92;44.49;100331.22;2210489;39;113754;-53
2021/05/13 03:47:47;;;;;;;;;;;;;;;19.92;44.75;100322.81;2210116;39;114610;-53
2021/05/13 03:49:19;;;;;;;;;;;;;;;19.93;44.81;100326.44;2207684;39;115815;-53
2021/05/13 03:50:50;;;;;;;;;;;;;;;19.94;44.71;100326.09;2206957;39;115505;-54
2021/05/13 03:52:22;;;;;;;;;;;;;;;19.94;44.82;100328.91;2212740;39;115471;-53
2021/05/13 03:53:54;;;;;;;;;;;;;;;19.93;44.53;100329.25;2203371;39;115780;-53
2021/05/13 03:55:26;;;;;;;;;;;;;;;19.92;44.77;100319.16;2212241;39;115438;-53
2021/05/13 03:56:58;;;;;;;;;;;;;;;19.92;44.85;100321.97;2212350;39;114748;-53
2021/05/13 03:58:34;;;;;;;;;;;;;;;19.92;45.06;100320.00;2205883;39;115537;-54
2021/05/13 04:00:10;;;;;;;;;;;;;;;19.92;45.35;100317.19;2204750;39;115531;-52
2021/05/13 04:03:14;;;;;;;;;;;;;;;19.92;45.30;100314.41;2209712;39;114507;-53
2021/05/13 04:04:45;;;;;;;;;;;;;;;19.90;45.46;100325.09;2207283;39;115620;-53
2021/05/13 04:06:17;;;;;;;;;;;;;;;19.89;45.83;100311.41;2207375;39;115455;-54
2021/05/13 04:07:49;;;;;;;;;;;;;;;19.91;45.34;100317.50;2208888;39;115454;-53
2021/05/13 04:09:21;;;;;;;;;;;;;;;19.90;45.71;100324.25;2206873;39;115494;-53
2021/05/13 04:10:53;;;;;;;;;;;;;;;19.89;45.85;100320.66;2210351;39;115554;-54
2021/05/13 04:12:25;;;;;;;;;;;;;;;19.88;45.99;100323.75;2210061;39;116413;-54
2021/05/13 04:13:56;;;;;;;;;;;;;;;19.87;45.91;100324.91;2207147;39;113788;-52
2021/05/13 04:15:28;;;;;;;;;;;;;;;19.86;45.72;100320.44;2209940;39;114132;-53
2021/05/13 04:17:01;;;;;;;;;;;;;;;19.86;46.24;100326.03;2209716;39;113746;-54
2021/05/13 04:18:33;;;;;;;;;;;;;;;19.84;46.29;100322.75;2211706;39;113766;-54
2021/05/13 04:20:07;;;;;;;;;;;;;;;19.85;45.96;100321.59;2207545;39;113938;-53
2021/05/13 04:21:39;;;;;;;;;;;;;;;19.83;46.13;100316.31;2199269;39;113917;-53
2021/05/13 04:23:11;;;;;;;;;;;;;;;19.84;46.28;100312.38;2201304;39;113824;-54
2021/05/13 04:24:43;;;;;;;;;;;;;;;19.84;46.58;100314.34;2207752;39;113965;-53
2021/05/13 04:26:15;;;;;;;;;;;;;;;19.82;46.55;100317.44;2207013;39;113889;-53
2021/05/13 04:27:48;;;;;;;;;;;;;;;19.82;46.89;100313.81;2206286;39;113770;-54
2021/05/13 04:29:19;;;;;;;;;;;;;;;19.83;46.65;100312.69;2208667;39;113957;-54
2021/05/13 04:30:51;;;;;;;;;;;;;;;19.82;46.49;100308.22;2207643;39;113897;-53
2021/05/13 04:32:23;;;;;;;;;;;;;;;19.81;46.63;100309.34;2211182;39;113962;-53
2021/05/13 04:33:55;;;;;;;;;;;;;;;19.83;46.70;100309.88;2208990;39;114208;-53
2021/05/13 04:35:26;;;;;;;;;;;;;;;19.81;46.95;100307.38;2212298;39;115225;-53
2021/05/13 04:36:58;;;;;;;;;;;;;;;19.83;46.58;100302.28;2208845;39;114788;-54
2021/05/13 04:38:30;;;;;;;;;;;;;;;19.75;47.69;100305.88;2210466;39;114817;-54
2021/05/13 04:40:03;;;;;;;;;;;;;;;19.73;47.88;100304.53;2208169;39;114076;-54
2021/05/13 04:41:35;;;;;;;;;;;;;;;19.66;47.93;100302.19;2202178;39;114854;-54
2021/05/13 04:43:07;;;;;;;;;;;;;;;19.64;48.17;100301.66;2206523;39;114536;-55
2021/05/13 04:44:40;;;;;;;;;;;;;;;19.64;48.53;100303.63;2203789;39;114662;-55
2021/05/13 04:46:12;;;;;;;;;;;;;;;19.60;48.16;100297.00;2208436;39;114400;-54
2021/05/13 04:49:16;;;;;;;;;;;;;;;19.62;48.17;100297.53;2206475;39;114594;-54
2021/05/13 04:50:48;;;;;;;;;;;;;;;19.54;48.62;100302.72;2211119;39;114982;-53
2021/05/13 04:52:21;;;;;;;;;;;;;;;19.72;46.80;100292.47;2211356;39;114726;-53
2021/05/13 04:53:53;;;;;;;;;;;;;;;19.81;46.73;100287.75;2208024;39;114835;-54
2021/05/13 04:55:24;;;;;;;;;;;;;;;19.88;47.31;100295.72;2207897;39;115134;-53
2021/05/13 04:56:59;;;;;;;;;;;;;;;19.93;47.61;100293.63;2213451;39;115191;-53
2021/05/13 04:58:31;;;;;;;;;;;;;;;20.00;47.77;100293.16;2207178;39;114529;-54
2021/05/13 05:00:04;;;;;;;;;;;;;;;20.06;47.78;100286.28;2204210;39;115560;-53
2021/05/13 05:01:36;;;;;;;;;;;;;;;20.13;48.21;100297.00;2208795;39;115584;-54
2021/05/13 05:03:09;;;;;;;;;;;;;;;20.17;48.24;100292.44;2205103;39;115568;-53
2021/05/13 05:04:41;;;;;;;;;;;;;;;20.23;47.97;100296.75;2207658;39;115550;-53
2021/05/13 05:06:13;;;;;;;;;;;;;;;20.29;48.37;100290.69;2203925;39;116576;-54
2021/05/13 05:07:45;;;;;;;;;;;;;;;20.35;48.02;100288.59;2204469;39;114554;-55
2021/05/13 05:09:16;;;;;;;;;;;;;;;20.42;48.61;100291.75;2206255;39;115580;-54
2021/05/13 05:10:48;;;;;;;;;;;;;;;20.47;48.56;100297.22;2210540;39;116194;-54
2021/05/13 05:12:20;;;;;;;;;;;;;;;20.53;48.35;100292.31;2209561;39;114505;-54
2021/05/13 05:13:51;;;;;;;;;;;;;;;20.58;48.17;100284.53;2208146;39;114513;-53
2021/05/13 05:15:23;;;;;;;;;;;;;;;20.66;47.56;100291.34;2208421;39;115677;-53
2021/05/13 05:16:55;;;;;;;;;;;;;;;20.72;47.84;100293.69;2200271;39;115439;-53
2021/05/13 05:18:28;;;;;;;;;;;;;;;20.78;47.25;100283.97;2205639;39;115125;-53
2021/05/13 05:20:00;;;;;;;;;;;;;;;20.83;46.99;100289.44;2209748;39;113845;-54
2021/05/13 05:21:31;;;;;;;;;;;;;;;20.92;46.88;100288.63;2208453;39;113685;-52
2021/05/13 05:23:03;;;;;;;;;;;;;;;20.97;46.31;100285.66;2204349;39;113844;-53
2021/05/13 05:24:35;;;;;;;;;;;;;;;21.02;46.58;100288.31;2211048;39;113598;-54
2021/05/13 05:26:06;;;;;;;;;;;;;;;21.08;46.25;100284.16;2206266;39;114030;-54
2021/05/13 05:27:38;;;;;;;;;;;;;;;21.13;46.19;100284.88;2210508;39;114002;-53
2021/05/13 05:29:10;;;;;;;;;;;;;;;21.20;45.78;100279.63;2209948;39;113694;-58
2021/05/13 05:30:42;;;;;;;;;;;;;;;21.24;46.82;100283.41;2207090;39;113694;-54
2021/05/13 05:32:13;;;;;;;;;;;;;;;21.32;46.47;100283.72;2206036;39;114214;-53
2021/05/13 05:33:45;;;;;;;;;;;;;;;21.38;46.18;100282.41;2207365;39;113744;-53
2021/05/13 05:35:18;;;;;;;;;;;;;;;21.43;45.78;100280.28;2204773;39;114125;-56
2021/05/13 05:36:50;;;;;;;;;;;;;;;21.47;45.61;100280.44;2200929;39;114739;-53
2021/05/13 05:38:22;;;;;;;;;;;;;;;21.53;45.72;100284.75;2205058;39;114020;-54
2021/05/13 05:39:53;;;;;;;;;;;;;;;21.59;45.67;100274.97;2204524;39;113851;-53
2021/05/13 05:41:25;;;;;;;;;;;;;;;21.63;45.55;100281.56;2208053;39;113841;-54
2021/05/13 05:42:57;;;;;;;;;;;;;;;21.69;45.27;100277.44;2210812;39;113938;-53
2021/05/13 05:44:29;;;;;;;;;;;;;;;21.73;44.96;100272.81;2210479;39;115201;-54
2021/05/13 05:46:00;;;;;;;;;;;;;;;21.77;44.91;100279.41;2205066;39;115758;-54
2021/05/13 05:47:32;;;;;;;;;;;;;;;21.82;44.85;100279.25;2205545;39;114061;-55
2021/05/13 05:49:04;;;;;;;;;;;;;;;21.87;45.13;100267.81;2210521;39;114943;-54
2021/05/13 05:50:37;;;;;;;;;;;;;;;21.92;44.90;100270.47;2210290;39;115470;-53
2021/05/13 05:52:09;;;;;;;;;;;;;;;21.96;44.77;100277.09;2206915;39;114702;-53
2021/05/13 05:53:40;;;;;;;;;;;;;;;22.00;44.92;100271.63;2207310;39;114864;-54
2021/05/13 05:55:12;;;;;;;;;;;;;;;22.04;45.24;100272.59;2207382;39;115523;-53
2021/05/13 05:56:44;;;;;;;;;;;;;;;22.07;44.97;100269.97;2208976;39;114885;-54
2021/05/13 05:58:16;;;;;;;;;;;;;;;22.11;45.24;100262.50;2208759;39;114646;-53
2021/05/13 05:59:48;;;;;;;;;;;;;;;22.14;44.96;100269.44;2209869;39;114831;-53
2021/05/13 06:01:19;;;;;;;;;;;;;;;22.16;44.73;100265.13;2210991;39;113892;-54
2021/05/13 06:02:51;;;;;;;;;;;;;;;22.19;44.75;100269.25;2210224;39;115899;-54
2021/05/13 06:04:23;;;;;;;;;;;;;;;22.23;44.60;100275.03;2208202;39;114499;-53
2021/05/13 06:05:55;;;;;;;;;;;;;;;22.24;44.54;100277.50;2212897;39;115556;-54
2021/05/13 06:07:26;;;;;;;;;;;;;;;22.25;44.25;100265.09;2209902;39;115722;-54
2021/05/13 06:08:58;;;;;;;;;;;;;;;22.27;44.34;100276.84;2209126;39;114665;-53
2021/05/13 06:10:30;;;;;;;;;;;;;;;22.30;44.60;100269.72;2208672;39;115569;-54
2021/05/13 06:12:02;;;;;;;;;;;;;;;22.29;44.18;100274.53;2210643;39;115673;-53
2021/05/13 06:13:33;;;;;;;;;;;;;;;22.31;43.77;100269.38;2210021;39;115430;-54
2021/05/13 06:15:06;;;;;;;;;;;;;;;22.33;43.74;100271.84;2205111;39;115335;-53
2021/05/13 06:16:37;;;;;;;;;;;;;;;22.34;43.54;100273.50;2202308;39;115518;-53
2021/05/13 06:18:09;;;;;;;;;;;;;;;22.34;43.50;100270.69;2210930;39;115660;-54
2021/05/13 06:19:41;;;;;;;;;;;;;;;22.36;43.67;100262.72;2209833;39;115636;-54
2021/05/13 06:21:13;;;;;;;;;;;;;;;22.35;43.32;100267.53;2207077;39;115389;-53
2021/05/13 06:22:44;;;;;;;;;;;;;;;22.36;43.24;100272.00;2208973;39;115489;-54
2021/05/13 06:24:18;;;;;;;;;;;;;;;22.36;43.35;100268.34;2213103;39;114479;-53
2021/05/13 06:25:50;;;;;;;;;;;;;;;22.36;43.42;100271.16;2208901;39;113906;-54
2021/05/13 06:27:22;;;;;;;;;;;;;;;22.37;43.25;100270.84;2206865;39;113902;-53
2021/05/13 06:28:53;;;;;;;;;;;;;;;22.38;42.95;100266.88;2197320;39;113918;-54
2021/05/13 06:30:26;;;;;;;;;;;;;;;22.38;42.91;100266.03;2205895;39;114155;-54
2021/05/13 06:31:58;;;;;;;;;;;;;;;22.38;42.99;100260.41;2202269;39;115223;-53
2021/05/13 06:33:30;;;;;;;;;;;;;;;22.38;42.99;100268.84;2198827;39;113859;-54
2021/05/13 06:35:02;;;;;;;;;;;;;;;22.38;42.81;100266.03;2208513;39;114039;-54
2021/05/13 06:36:33;;;;;;;;;;;;;;;22.35;42.96;100273.16;2206991;39;113915;-54
2021/05/13 06:38:05;;;;;;;;;;;;;;;22.36;42.82;100273.97;2204982;39;114291;-54
2021/05/13 06:39:37;;;;;;;;;;;;;;;22.36;42.85;100260.75;2208228;39;113664;-53
2021/05/13 06:41:09;;;;;;;;;;;;;;;22.37;42.78;100270.00;2210262;39;113702;-54
2021/05/13 06:42:41;;;;;;;;;;;;;;;22.37;42.67;100268.03;2204568;39;113804;-54
2021/05/13 06:44:13;;;;;;;;;;;;;;;22.37;42.87;100272.81;2209792;39;114268;-54
2021/05/13 06:45:45;;;;;;;;;;;;;;;22.35;42.68;100273.16;2212109;39;113657;-53
2021/05/13 06:47:16;;;;;;;;;;;;;;;22.37;42.53;100273.66;2209969;39;114290;-54
2021/05/13 06:48:48;;;;;;;;;;;;;;;22.36;42.59;100272.00;2206365;39;115261;-54
2021/05/13 06:50:21;;;;;;;;;;;;;;;22.36;42.75;100269.19;2206453;39;113909;-54
2021/05/13 06:51:52;;;;;;;;;;;;;;;22.35;42.85;100269.53;2208534;39;115281;-53
2021/05/13 06:53:24;;;;;;;;;;;;;;;22.34;42.75;100271.53;2210060;39;114773;-53
2021/05/13 06:54:56;;;;;;;;;;;;;;;22.35;42.77;100269.53;2208783;39;114904;-59
2021/05/13 06:56:28;;;;;;;;;;;;;;;22.33;42.87;100269.03;2207377;39;114321;-53
2021/05/13 06:58:01;;;;;;;;;;;;;;;22.34;43.09;100274.34;2209170;39;115242;-60
2021/05/13 06:59:33;;;;;;;;;;;;;;;22.34;42.74;100282.78;2210004;39;113890;-56
2021/05/13 07:01:05;;;;;;;;;;;;;;;22.33;42.65;100280.28;2209893;39;115000;-54
2021/05/13 07:02:37;;;;;;;;;;;;;;;22.33;42.76;100277.47;2205940;39;115841;-54
2021/05/13 07:04:09;;;;;;;;;;;;;;;22.32;42.94;100270.19;2212645;39;114797;-53
2021/05/13 07:05:41;;;;;;;;;;;;;;;22.31;42.60;100275.00;2209728;39;114822;-53
2021/05/13 07:07:13;;;;;;;;;;;;;;;22.32;42.86;100275.81;2209891;39;115190;-54
2021/05/13 07:08:44;;;;;;;;;;;;;;;22.30;42.50;100270.56;2206982;39;115451;-54
2021/05/13 07:10:16;;;;;;;;;;;;;;;22.30;42.74;100278.16;2207116;39;115477;-54
2021/05/13 07:11:48;;;;;;;;;;;;;;;22.29;42.67;100280.16;2209122;39;116078;-54
2021/05/13 07:13:24;;;;;;;;;;;;;;;22.28;42.82;100284.13;2204879;39;115400;-54
2021/05/13 07:14:56;;;;;;;;;;;;;;;22.27;42.72;100281.63;2208426;39;114560;-53
2021/05/13 07:16:29;;;;;;;;;;;;;;;22.26;42.84;100278.00;2211959;39;115732;-54
2021/05/13 07:18:01;;;;;;;;;;;;;;;22.27;42.62;100281.63;2213574;39;115586;-54
2021/05/13 07:19:33;;;;;;;;;;;;;;;22.25;42.90;100284.81;2210435;39;115427;-54
2021/05/13 07:21:04;;;;;;;;;;;;;;;22.25;42.71;100287.63;2215734;39;115281;-53
2021/05/13 07:22:36;;;;;;;;;;;;;;;22.23;42.96;100281.47;2216771;39;116255;-53
2021/05/13 07:24:08;;;;;;;;;;;;;;;22.22;43.12;100279.81;2210676;39;115447;-54
2021/05/13 07:25:40;;;;;;;;;;;;;;;22.23;42.75;100287.13;2214250;39;115540;-54
2021/05/13 07:27:12;;;;;;;;;;;;;;;22.22;42.69;100281.81;2211626;39;115493;-54
2021/05/13 07:28:44;;;;;;;;;;;;;;;22.22;42.99;100287.44;2214708;39;114904;-54
2021/05/13 07:30:18;;;;;;;;;;;;;;;22.20;42.67;100284.97;2203788;39;114201;-53
2021/05/13 07:31:49;;;;;;;;;;;;;;;22.18;42.99;100288.13;2202531;39;114110;-53
2021/05/13 07:33:21;;;;;;;;;;;;;;;22.19;42.76;100297.41;2201911;39;114154;-53
2021/05/13 07:34:53;;;;;;;;;;;;;;;22.18;43.23;100287.28;2213012;39;113960;-54
2021/05/13 07:36:28;;;;;;;;;;;;;;;22.17;42.79;100296.88;2210298;39;113820;-54
2021/05/13 07:37:59;;;;;;;;;;;;;;;22.17;42.82;100291.25;2211284;39;113850;-54
2021/05/13 07:39:31;;;;;;;;;;;;;;;22.16;43.15;100293.28;2210914;39;114643;-54
2021/05/13 07:41:05;;;;;;;;;;;;;;;22.15;42.84;100285.16;2214769;39;113838;-53
2021/05/13 07:42:37;;;;;;;;;;;;;;;22.16;42.91;100289.63;2210074;39;117507;-54
2021/05/13 07:44:08;;;;;;;;;;;;;;;22.14;42.66;100294.75;2205675;39;113785;-53
2021/05/13 07:45:43;;;;;;;;;;;;;;;22.13;43.07;100293.09;2206262;39;114019;-53
2021/05/13 07:47:18;;;;;;;;;;;;;;;22.12;43.08;100297.09;2208231;39;113995;-53
2021/05/13 07:48:52;;;;;;;;;;;;;;;22.09;43.02;100290.13;2215312;39;114132;-52
2021/05/13 07:50:24;;;;;;;;;;;;;;;22.09;42.74;100290.13;2210286;39;113937;-54
2021/05/13 07:51:56;;;;;;;;;;;;;;;22.09;42.94;100292.94;2211178;39;113840;-53
2021/05/13 07:53:28;;;;;;;;;;;;;;;22.07;43.03;100292.47;2214580;39;114323;-55
2021/05/13 07:55:02;;;;;;;;;;;;;;;22.05;42.66;100291.97;2217529;39;114826;-54
2021/05/13 07:56:34;;;;;;;;;;;;;;;22.04;43.19;100295.94;2210552;39;114830;-54